sensor_id;sensor_type;location;lat;lon;timestamp;pressure;altitude;pressure_sealevel;temperature;humidity
41260;BME280;26993;48.958;9.330;2022-07-05T00:01:57;98709.06;;;15.71;82.92
41260;BME280;26993;48.958;9.330;2022-07-05T00:04:45;98713.63;;;15.60;83.34
41260;BME280;26993;48.958;9.330;2022-07-05T00:07:32;98714.25;;;15.73;82.73
41260;BME280;26993;48.958;9.330;2022-07-05T00:10:19;98708.91;;;15.84;82.58
41260;BME280;26993;48.958;9.330;2022-07-05T00:13:07;98708.56;;;15.52;83.01
41260;BME280;26993;48.958;9.330;2022-07-05T00:15:54;98708.47;;;15.59;82.84
41260;BME280;26993;48.958;9.330;2022-07-05T00:18:40;98712.09;;;15.48;83.26
41260;BME280;26993;48.958;9.330;2022-07-05T00:21:28;98705.28;;;15.41;83.89
41260;BME280;26993;48.958;9.330;2022-07-05T00:24:15;98706.34;;;15.29;83.39
41260;BME280;26993;48.958;9.330;2022-07-05T00:27:02;98707.34;;;15.22;83.81
41260;BME280;26993;48.958;9.330;2022-07-05T00:29:49;98700.47;;;15.19;83.51
41260;BME280;26993;48.958;9.330;2022-07-05T00:32:36;98697.59;;;15.36;83.12
41260;BME280;26993;48.958;9.330;2022-07-05T00:35:23;98698.47;;;15.37;82.66
41260;BME280;26993;48.958;9.330;2022-07-05T00:38:11;98698.59;;;15.28;83.22
41260;BME280;26993;48.958;9.330;2022-07-05T00:40:58;98694.56;;;15.10;84.08
41260;BME280;26993;48.958;9.330;2022-07-05T00:43:51;98700.50;;;15.18;83.87
41260;BME280;26993;48.958;9.330;2022-07-05T00:46:38;98700.56;;;15.13;84.15
41260;BME280;26993;48.958;9.330;2022-07-05T00:49:25;98705.75;;;15.13;84.33
41260;BME280;26993;48.958;9.330;2022-07-05T00:52:12;98707.41;;;15.19;84.79
41260;BME280;26993;48.958;9.330;2022-07-05T00:55:01;98712.84;;;15.03;84.62
41260;BME280;26993;48.958;9.330;2022-07-05T00:57:49;98711.91;;;15.07;84.22
41260;BME280;26993;48.958;9.330;2022-07-05T01:00:36;98716.53;;;14.87;84.01
41260;BME280;26993;48.958;9.330;2022-07-05T01:03:22;98714.03;;;14.79;84.21
41260;BME280;26993;48.958;9.330;2022-07-05T01:06:11;98727.88;;;14.78;85.30
41260;BME280;26993;48.958;9.330;2022-07-05T01:08:58;98727.97;;;14.72;84.80
41260;BME280;26993;48.958;9.330;2022-07-05T01:11:47;98735.25;;;14.43;86.35
41260;BME280;26993;48.958;9.330;2022-07-05T01:14:34;98715.19;;;14.56;86.56
41260;BME280;26993;48.958;9.330;2022-07-05T01:17:22;98726.47;;;14.55;87.84
41260;BME280;26993;48.958;9.330;2022-07-05T01:20:09;98729.34;;;14.32;88.60
41260;BME280;26993;48.958;9.330;2022-07-05T01:22:58;98727.56;;;14.36;88.80
41260;BME280;26993;48.958;9.330;2022-07-05T01:25:47;98723.44;;;14.21;89.38
41260;BME280;26993;48.958;9.330;2022-07-05T01:28:34;98727.59;;;14.34;88.46
41260;BME280;26993;48.958;9.330;2022-07-05T01:31:20;98730.94;;;14.41;88.38
41260;BME280;26993;48.958;9.330;2022-07-05T01:34:08;98724.94;;;14.37;87.82
41260;BME280;26993;48.958;9.330;2022-07-05T01:36:55;98733.75;;;14.25;87.86
41260;BME280;26993;48.958;9.330;2022-07-05T01:39:43;98728.78;;;14.04;89.33
41260;BME280;26993;48.958;9.330;2022-07-05T01:42:30;98728.88;;;13.99;89.85
41260;BME280;26993;48.958;9.330;2022-07-05T01:45:17;98727.03;;;14.07;89.66
41260;BME280;26993;48.958;9.330;2022-07-05T01:48:19;98729.66;;;14.06;89.94
41260;BME280;26993;48.958;9.330;2022-07-05T01:51:13;98723.53;;;14.13;89.73
41260;BME280;26993;48.958;9.330;2022-07-05T01:54:02;98724.56;;;13.96;90.39
41260;BME280;26993;48.958;9.330;2022-07-05T01:56:51;98729.06;;;13.80;90.83
41260;BME280;26993;48.958;9.330;2022-07-05T01:59:38;98729.22;;;13.65;91.55
41260;BME280;26993;48.958;9.330;2022-07-05T02:02:24;98730.94;;;13.66;91.78
41260;BME280;26993;48.958;9.330;2022-07-05T02:05:11;98724.88;;;13.67;91.70
41260;BME280;26993;48.958;9.330;2022-07-05T02:07:58;98723.06;;;13.74;91.21
41260;BME280;26993;48.958;9.330;2022-07-05T02:10:44;98716.25;;;13.68;91.75
41260;BME280;26993;48.958;9.330;2022-07-05T02:13:33;98712.56;;;13.91;91.40
41260;BME280;26993;48.958;9.330;2022-07-05T02:16:22;98709.13;;;13.86;90.79
41260;BME280;26993;48.958;9.330;2022-07-05T02:19:09;98713.63;;;13.70;92.13
41260;BME280;26993;48.958;9.330;2022-07-05T02:21:56;98699.28;;;13.35;92.83
41260;BME280;26993;48.958;9.330;2022-07-05T02:24:43;98710.56;;;13.24;93.98
41260;BME280;26993;48.958;9.330;2022-07-05T02:27:29;98708.75;;;13.36;93.75
41260;BME280;26993;48.958;9.330;2022-07-05T02:30:18;98703.59;;;13.29;94.17
41260;BME280;26993;48.958;9.330;2022-07-05T02:33:05;98705.44;;;13.21;94.76
41260;BME280;26993;48.958;9.330;2022-07-05T02:35:52;98710.56;;;13.27;94.34
41260;BME280;26993;48.958;9.330;2022-07-05T02:38:39;98712.25;;;13.27;94.57
41260;BME280;26993;48.958;9.330;2022-07-05T02:41:26;98713.94;;;13.32;94.76
41260;BME280;26993;48.958;9.330;2022-07-05T02:44:13;98716.50;;;13.37;94.34
41260;BME280;26993;48.958;9.330;2022-07-05T02:47:01;98720.78;;;13.41;94.04
41260;BME280;26993;48.958;9.330;2022-07-05T02:49:47;98718.09;;;13.52;93.60
41260;BME280;26993;48.958;9.330;2022-07-05T02:52:35;98725.09;;;13.45;93.49
41260;BME280;26993;48.958;9.330;2022-07-05T02:55:21;98721.59;;;13.48;93.62
41260;BME280;26993;48.958;9.330;2022-07-05T02:58:08;98729.41;;;13.43;93.86
41260;BME280;26993;48.958;9.330;2022-07-05T03:00:55;98723.38;;;13.43;93.70
41260;BME280;26993;48.958;9.330;2022-07-05T03:03:43;98715.50;;;13.52;93.42
41260;BME280;26993;48.958;9.330;2022-07-05T03:06:30;98720.69;;;13.52;93.37
41260;BME280;26993;48.958;9.330;2022-07-05T03:09:16;98725.91;;;13.51;93.58
41260;BME280;26993;48.958;9.330;2022-07-05T03:12:04;98724.13;;;13.54;93.74
41260;BME280;26993;48.958;9.330;2022-07-05T03:14:51;98725.78;;;13.61;93.89
41260;BME280;26993;48.958;9.330;2022-07-05T03:17:38;98732.88;;;13.38;92.93
41260;BME280;26993;48.958;9.330;2022-07-05T03:20:26;98729.56;;;13.22;95.22
41260;BME280;26993;48.958;9.330;2022-07-05T03:23:13;98731.25;;;13.27;95.12
41260;BME280;26993;48.958;9.330;2022-07-05T03:26:00;98730.38;;;13.27;94.65
41260;BME280;26993;48.958;9.330;2022-07-05T03:28:47;98737.47;;;13.00;95.46
41260;BME280;26993;48.958;9.330;2022-07-05T03:31:33;98740.13;;;12.91;96.07
41260;BME280;26993;48.958;9.330;2022-07-05T03:34:21;98730.56;;;13.00;95.58
41260;BME280;26993;48.958;9.330;2022-07-05T03:37:09;98735.72;;;13.07;94.60
41260;BME280;26993;48.958;9.330;2022-07-05T03:39:55;98741.88;;;12.82;95.55
41260;BME280;26993;48.958;9.330;2022-07-05T03:42:42;98750.50;;;12.84;95.61
41260;BME280;26993;48.958;9.330;2022-07-05T03:45:29;98758.19;;;12.92;94.69
41260;BME280;26993;48.958;9.330;2022-07-05T03:48:15;98755.63;;;12.94;94.79
41260;BME280;26993;48.958;9.330;2022-07-05T03:51:02;98757.31;;;13.01;94.67
41260;BME280;26993;48.958;9.330;2022-07-05T03:53:50;98764.22;;;12.94;94.54
41260;BME280;26993;48.958;9.330;2022-07-05T03:56:37;98764.22;;;12.96;95.24
41260;BME280;26993;48.958;9.330;2022-07-05T03:59:24;98771.03;;;13.08;95.12
41260;BME280;26993;48.958;9.330;2022-07-05T04:02:11;98765.78;;;13.25;94.46
41260;BME280;26993;48.958;9.330;2022-07-05T04:04:58;98764.84;;;13.30;94.30
41260;BME280;26993;48.958;9.330;2022-07-05T04:07:48;98773.44;;;13.34;94.00
41260;BME280;26993;48.958;9.330;2022-07-05T04:10:37;98780.31;;;13.37;93.97
41260;BME280;26993;48.958;9.330;2022-07-05T04:13:24;98780.34;;;13.35;93.84
41260;BME280;26993;48.958;9.330;2022-07-05T04:16:11;98790.72;;;13.33;94.01
41260;BME280;26993;48.958;9.330;2022-07-05T04:18:58;98788.03;;;13.46;93.99
41260;BME280;26993;48.958;9.330;2022-07-05T04:21:45;98788.63;;;13.79;92.25
41260;BME280;26993;48.958;9.330;2022-07-05T04:24:32;98791.28;;;13.74;92.13
41260;BME280;26993;48.958;9.330;2022-07-05T04:27:40;98793.03;;;13.71;92.71
41260;BME280;26993;48.958;9.330;2022-07-05T04:30:27;98779.97;;;13.83;91.90
41260;BME280;26993;48.958;9.330;2022-07-05T04:33:14;98785.91;;;13.91;91.00
41260;BME280;26993;48.958;9.330;2022-07-05T04:36:00;98786.72;;;14.00;90.62
41260;BME280;26993;48.958;9.330;2022-07-05T04:38:47;98796.97;;;14.07;90.76
41260;BME280;26993;48.958;9.330;2022-07-05T04:41:34;98799.69;;;13.98;91.75
41260;BME280;26993;48.958;9.330;2022-07-05T04:44:22;98800.34;;;14.16;91.79
41260;BME280;26993;48.958;9.330;2022-07-05T04:47:09;98800.31;;;14.22;91.63
41260;BME280;26993;48.958;9.330;2022-07-05T04:49:56;98802.78;;;14.33;91.56
41260;BME280;26993;48.958;9.330;2022-07-05T04:52:43;98799.09;;;14.49;91.35
41260;BME280;26993;48.958;9.330;2022-07-05T04:55:30;98798.00;;;14.72;90.54
41260;BME280;26993;48.958;9.330;2022-07-05T04:58:17;98797.72;;;14.95;89.53
41260;BME280;26993;48.958;9.330;2022-07-05T05:01:05;98801.19;;;14.94;89.74
41260;BME280;26993;48.958;9.330;2022-07-05T05:03:52;98809.81;;;14.95;89.77
41260;BME280;26993;48.958;9.330;2022-07-05T05:06:39;98808.72;;;15.11;89.42
41260;BME280;26993;48.958;9.330;2022-07-05T05:09:25;98798.13;;;15.27;88.71
41260;BME280;26993;48.958;9.330;2022-07-05T05:12:12;98797.84;;;15.44;87.83
41260;BME280;26993;48.958;9.330;2022-07-05T05:14:59;98803.75;;;15.55;87.65
41260;BME280;26993;48.958;9.330;2022-07-05T05:17:47;98801.84;;;15.65;86.44
41260;BME280;26993;48.958;9.330;2022-07-05T05:20:34;98796.56;;;15.69;86.80
41260;BME280;26993;48.958;9.330;2022-07-05T05:23:21;98792.88;;;15.84;87.27
41260;BME280;26993;48.958;9.330;2022-07-05T05:26:08;98790.09;;;15.95;85.76
41260;BME280;26993;48.958;9.330;2022-07-05T05:28:55;98800.63;;;16.34;85.02
41260;BME280;26993;48.958;9.330;2022-07-05T05:31:44;98791.97;;;17.17;83.20
41260;BME280;26993;48.958;9.330;2022-07-05T05:34:32;98777.03;;;21.17;71.19
41260;BME280;26993;48.958;9.330;2022-07-05T05:37:19;98766.97;;;25.76;57.42
41260;BME280;26993;48.958;9.330;2022-07-05T05:40:07;98759.59;;;29.29;49.47
41260;BME280;26993;48.958;9.330;2022-07-05T05:42:56;98767.03;;;31.95;44.57
41260;BME280;26993;48.958;9.330;2022-07-05T05:45:43;98772.97;;;33.31;41.25
41260;BME280;26993;48.958;9.330;2022-07-05T05:48:30;98769.41;;;34.37;40.01
41260;BME280;26993;48.958;9.330;2022-07-05T05:51:18;98773.84;;;34.56;39.51
41260;BME280;26993;48.958;9.330;2022-07-05T05:54:05;98786.69;;;33.07;41.30
41260;BME280;26993;48.958;9.330;2022-07-05T05:56:51;98787.28;;;30.44;44.73
41260;BME280;26993;48.958;9.330;2022-07-05T05:59:38;98796.44;;;28.08;47.88
41260;BME280;26993;48.958;9.330;2022-07-05T06:02:25;98807.97;;;26.12;52.17
41260;BME280;26993;48.958;9.330;2022-07-05T06:05:12;98814.09;;;24.38;56.20
41260;BME280;26993;48.958;9.330;2022-07-05T06:08:00;98814.56;;;23.94;58.21
41260;BME280;26993;48.958;9.330;2022-07-05T06:10:47;98822.78;;;23.34;60.20
41260;BME280;26993;48.958;9.330;2022-07-05T06:13:34;98821.53;;;22.66;61.53
41260;BME280;26993;48.958;9.330;2022-07-05T06:16:21;98827.25;;;22.14;61.63
41260;BME280;26993;48.958;9.330;2022-07-05T06:19:08;98825.34;;;21.76;63.46
41260;BME280;26993;48.958;9.330;2022-07-05T06:21:54;98831.81;;;21.45;63.94
41260;BME280;26993;48.958;9.330;2022-07-05T06:24:42;98830.66;;;21.52;64.48
41260;BME280;26993;48.958;9.330;2022-07-05T06:27:29;98821.31;;;21.67;63.77
41260;BME280;26993;48.958;9.330;2022-07-05T06:30:18;98821.53;;;21.63;63.31
41260;BME280;26993;48.958;9.330;2022-07-05T06:33:05;98835.75;;;21.57;63.28
41260;BME280;26993;48.958;9.330;2022-07-05T06:35:52;98835.03;;;21.30;63.75
41260;BME280;26993;48.958;9.330;2022-07-05T06:38:38;98838.16;;;21.17;64.41
41260;BME280;26993;48.958;9.330;2022-07-05T06:41:28;98840.88;;;21.14;64.08
41260;BME280;26993;48.958;9.330;2022-07-05T06:44:15;98834.38;;;21.24;65.13
41260;BME280;26993;48.958;9.330;2022-07-05T06:47:02;98842.34;;;21.21;64.47
41260;BME280;26993;48.958;9.330;2022-07-05T06:49:49;98850.72;;;20.85;65.29
41260;BME280;26993;48.958;9.330;2022-07-05T06:52:36;98852.28;;;21.13;65.80
41260;BME280;26993;48.958;9.330;2022-07-05T06:55:25;98846.47;;;21.05;65.14
41260;BME280;26993;48.958;9.330;2022-07-05T06:58:14;98847.84;;;20.91;65.70
41260;BME280;26993;48.958;9.330;2022-07-05T07:01:01;98839.50;;;21.28;65.29
41260;BME280;26993;48.958;9.330;2022-07-05T07:03:48;98838.44;;;21.54;63.80
41260;BME280;26993;48.958;9.330;2022-07-05T07:06:35;98839.78;;;21.86;62.17
41260;BME280;26993;48.958;9.330;2022-07-05T07:09:22;98845.63;;;21.93;61.67
41260;BME280;26993;48.958;9.330;2022-07-05T07:12:08;98843.53;;;22.01;61.11
41260;BME280;26993;48.958;9.330;2022-07-05T07:14:57;98844.25;;;22.05;60.31
41260;BME280;26993;48.958;9.330;2022-07-05T07:17:44;98842.44;;;22.07;60.52
41260;BME280;26993;48.958;9.330;2022-07-05T07:20:30;98847.94;;;22.22;59.88
41260;BME280;26993;48.958;9.330;2022-07-05T07:23:17;98846.41;;;22.37;60.53
41260;BME280;26993;48.958;9.330;2022-07-05T07:26:04;98850.09;;;22.32;59.77
41260;BME280;26993;48.958;9.330;2022-07-05T07:28:51;98853.44;;;22.36;59.86
41260;BME280;26993;48.958;9.330;2022-07-05T07:31:45;98852.91;;;22.28;59.25
41260;BME280;26993;48.958;9.330;2022-07-05T07:34:33;98850.13;;;22.31;59.65
41260;BME280;26993;48.958;9.330;2022-07-05T07:37:20;98850.03;;;22.55;58.93
41260;BME280;26993;48.958;9.330;2022-07-05T07:40:07;98851.84;;;22.53;57.80
41260;BME280;26993;48.958;9.330;2022-07-05T07:42:54;98854.13;;;22.41;58.19
41260;BME280;26993;48.958;9.330;2022-07-05T07:45:41;98853.34;;;22.58;58.12
41260;BME280;26993;48.958;9.330;2022-07-05T07:48:29;98849.44;;;22.88;57.13
41260;BME280;26993;48.958;9.330;2022-07-05T07:51:16;98856.44;;;23.06;56.84
41260;BME280;26993;48.958;9.330;2022-07-05T07:54:06;98855.09;;;22.97;57.35
41260;BME280;26993;48.958;9.330;2022-07-05T07:56:53;98861.66;;;23.08;57.25
41260;BME280;26993;48.958;9.330;2022-07-05T07:59:40;98862.41;;;23.10;57.50
41260;BME280;26993;48.958;9.330;2022-07-05T08:02:27;98860.69;;;22.90;58.16
41260;BME280;26993;48.958;9.330;2022-07-05T08:05:15;98871.41;;;23.25;58.61
41260;BME280;26993;48.958;9.330;2022-07-05T08:08:03;98866.97;;;23.25;58.47
41260;BME280;26993;48.958;9.330;2022-07-05T08:10:49;98863.50;;;23.44;57.96
41260;BME280;26993;48.958;9.330;2022-07-05T08:13:36;98859.00;;;23.46;58.43
41260;BME280;26993;48.958;9.330;2022-07-05T08:16:24;98851.19;;;23.44;60.22
41260;BME280;26993;48.958;9.330;2022-07-05T08:19:11;98859.78;;;23.48;60.57
41260;BME280;26993;48.958;9.330;2022-07-05T08:22:17;98852.00;;;23.64;58.72
41260;BME280;26993;48.958;9.330;2022-07-05T08:25:05;98850.38;;;23.79;59.71
41260;BME280;26993;48.958;9.330;2022-07-05T08:27:52;98846.38;;;23.89;58.06
41260;BME280;26993;48.958;9.330;2022-07-05T08:30:39;98853.69;;;24.02;58.72
41260;BME280;26993;48.958;9.330;2022-07-05T08:33:26;98851.09;;;24.18;57.60
41260;BME280;26993;48.958;9.330;2022-07-05T08:36:13;98855.44;;;24.36;56.89
41260;BME280;26993;48.958;9.330;2022-07-05T08:39:01;98858.56;;;24.43;55.49
41260;BME280;26993;48.958;9.330;2022-07-05T08:41:50;98858.34;;;24.48;55.69
41260;BME280;26993;48.958;9.330;2022-07-05T08:44:38;98851.44;;;24.63;55.45
41260;BME280;26993;48.958;9.330;2022-07-05T08:47:27;98855.78;;;24.64;54.75
41260;BME280;26993;48.958;9.330;2022-07-05T08:50:15;98852.94;;;24.84;55.31
41260;BME280;26993;48.958;9.330;2022-07-05T08:53:03;98849.72;;;24.79;53.64
41260;BME280;26993;48.958;9.330;2022-07-05T08:55:52;98845.63;;;24.90;53.57
41260;BME280;26993;48.958;9.330;2022-07-05T08:58:40;98848.44;;;25.02;52.93
41260;BME280;26993;48.958;9.330;2022-07-05T09:01:27;98851.19;;;25.01;51.85
41260;BME280;26993;48.958;9.330;2022-07-05T09:04:17;98843.25;;;24.85;51.85
41260;BME280;26993;48.958;9.330;2022-07-05T09:07:05;98842.91;;;25.23;52.06
41260;BME280;26993;48.958;9.330;2022-07-05T09:09:55;98841.16;;;25.24;50.67
41260;BME280;26993;48.958;9.330;2022-07-05T09:12:45;98847.28;;;25.08;51.13
41260;BME280;26993;48.958;9.330;2022-07-05T09:15:31;98842.56;;;25.29;50.31
41260;BME280;26993;48.958;9.330;2022-07-05T09:18:39;98842.91;;;25.23;50.33
41260;BME280;26993;48.958;9.330;2022-07-05T09:21:27;98850.50;;;25.13;49.97
41260;BME280;26993;48.958;9.330;2022-07-05T09:24:14;98850.47;;;25.29;49.85
41260;BME280;26993;48.958;9.330;2022-07-05T09:27:02;98845.97;;;25.31;49.95
41260;BME280;26993;48.958;9.330;2022-07-05T09:29:55;98846.84;;;25.48;49.56
41260;BME280;26993;48.958;9.330;2022-07-05T09:32:42;98848.78;;;25.28;50.49
41260;BME280;26993;48.958;9.330;2022-07-05T09:35:29;98846.59;;;25.53;50.20
41260;BME280;26993;48.958;9.330;2022-07-05T09:38:18;98850.03;;;25.69;50.65
41260;BME280;26993;48.958;9.330;2022-07-05T09:41:11;98853.06;;;25.77;49.16
41260;BME280;26993;48.958;9.330;2022-07-05T09:43:58;98854.16;;;25.89;50.12
41260;BME280;26993;48.958;9.330;2022-07-05T09:46:46;98852.97;;;25.48;50.84
41260;BME280;26993;48.958;9.330;2022-07-05T09:49:32;98853.88;;;25.63;52.17
41260;BME280;26993;48.958;9.330;2022-07-05T09:52:27;98847.44;;;25.53;51.29
41260;BME280;26993;48.958;9.330;2022-07-05T09:55:15;98854.88;;;25.77;49.56
41260;BME280;26993;48.958;9.330;2022-07-05T09:58:04;98843.31;;;25.94;47.79
41260;BME280;26993;48.958;9.330;2022-07-05T10:00:51;98852.00;;;25.65;50.69
41260;BME280;26993;48.958;9.330;2022-07-05T10:03:52;98852.75;;;25.84;47.41
41260;BME280;26993;48.958;9.330;2022-07-05T10:06:39;98844.09;;;25.96;48.29
41260;BME280;26993;48.958;9.330;2022-07-05T10:09:27;98842.91;;;25.86;48.23
41260;BME280;26993;48.958;9.330;2022-07-05T10:12:15;98846.47;;;26.01;45.62
41260;BME280;26993;48.958;9.330;2022-07-05T10:15:03;98831.06;;;26.09;46.35
41260;BME280;26993;48.958;9.330;2022-07-05T10:17:53;98834.00;;;26.19;45.28
41260;BME280;26993;48.958;9.330;2022-07-05T10:20:43;98841.84;;;26.04;44.68
41260;BME280;26993;48.958;9.330;2022-07-05T10:23:30;98842.22;;;25.98;46.24
41260;BME280;26993;48.958;9.330;2022-07-05T10:26:18;98832.47;;;25.84;46.30
41260;BME280;26993;48.958;9.330;2022-07-05T10:29:05;98841.69;;;26.22;46.50
41260;BME280;26993;48.958;9.330;2022-07-05T10:31:53;98834.56;;;26.38;45.92
41260;BME280;26993;48.958;9.330;2022-07-05T10:34:40;98842.09;;;26.59;44.89
41260;BME280;26993;48.958;9.330;2022-07-05T10:37:33;98843.34;;;26.68;44.16
41260;BME280;26993;48.958;9.330;2022-07-05T10:40:20;98843.47;;;26.81;44.18
41260;BME280;26993;48.958;9.330;2022-07-05T10:43:07;98843.63;;;26.92;45.45
41260;BME280;26993;48.958;9.330;2022-07-05T10:45:55;98839.63;;;27.14;44.38
41260;BME280;26993;48.958;9.330;2022-07-05T10:48:42;98846.06;;;26.66;43.77
41260;BME280;26993;48.958;9.330;2022-07-05T10:51:35;98837.97;;;26.55;45.10
41260;BME280;26993;48.958;9.330;2022-07-05T10:54:23;98836.94;;;26.57;44.28
41260;BME280;26993;48.958;9.330;2022-07-05T10:57:23;98839.78;;;26.69;43.75
41260;BME280;26993;48.958;9.330;2022-07-05T11:00:12;98832.41;;;26.59;44.67
41260;BME280;26993;48.958;9.330;2022-07-05T11:03:05;98832.78;;;26.97;44.68
41260;BME280;26993;48.958;9.330;2022-07-05T11:05:53;98834.22;;;27.15;44.04
41260;BME280;26993;48.958;9.330;2022-07-05T11:12:09;98828.72;;;26.62;43.09
41260;BME280;26993;48.958;9.330;2022-07-05T11:15:07;98842.88;;;26.61;43.36
41260;BME280;26993;48.958;9.330;2022-07-05T11:18:14;98840.22;;;26.61;43.90
41260;BME280;26993;48.958;9.330;2022-07-05T11:21:16;98836.28;;;26.83;43.21
41260;BME280;26993;48.958;9.330;2022-07-05T11:24:18;98834.88;;;26.91;42.19
41260;BME280;26993;48.958;9.330;2022-07-05T11:27:11;98838.81;;;26.99;41.97
41260;BME280;26993;48.958;9.330;2022-07-05T11:29:58;98831.72;;;26.99;44.48
41260;BME280;26993;48.958;9.330;2022-07-05T11:32:44;98831.69;;;27.14;42.03
41260;BME280;26993;48.958;9.330;2022-07-05T11:35:32;98839.03;;;27.23;43.40
41260;BME280;26993;48.958;9.330;2022-07-05T11:38:20;98828.28;;;27.53;43.95
41260;BME280;26993;48.958;9.330;2022-07-05T11:41:12;98829.53;;;27.48;44.43
41260;BME280;26993;48.958;9.330;2022-07-05T11:44:01;98831.69;;;27.14;43.35
41260;BME280;26993;48.958;9.330;2022-07-05T11:46:49;98830.53;;;27.32;42.43
41260;BME280;26993;48.958;9.330;2022-07-05T11:49:36;98822.56;;;27.47;43.30
41260;BME280;26993;48.958;9.330;2022-07-05T11:52:25;98824.84;;;27.66;43.02
41260;BME280;26993;48.958;9.330;2022-07-05T11:55:12;98822.16;;;27.53;42.42
41260;BME280;26993;48.958;9.330;2022-07-05T11:57:58;98819.53;;;27.66;43.03
41260;BME280;26993;48.958;9.330;2022-07-05T12:00:53;98811.91;;;27.61;43.49
41260;BME280;26993;48.958;9.330;2022-07-05T12:03:40;98809.91;;;27.78;42.91
41260;BME280;26993;48.958;9.330;2022-07-05T12:06:27;98801.84;;;27.66;42.03
41260;BME280;26993;48.958;9.330;2022-07-05T12:09:14;98804.19;;;27.71;43.97
41260;BME280;26993;48.958;9.330;2022-07-05T12:12:02;98804.16;;;27.58;41.93
41260;BME280;26993;48.958;9.330;2022-07-05T12:15:16;98797.97;;;27.72;42.36
41260;BME280;26993;48.958;9.330;2022-07-05T12:18:06;98803.69;;;27.92;44.40
41260;BME280;26993;48.958;9.330;2022-07-05T12:20:54;98792.03;;;27.81;42.55
41260;BME280;26993;48.958;9.330;2022-07-05T12:23:41;98799.47;;;27.89;42.70
41260;BME280;26993;48.958;9.330;2022-07-05T12:26:29;98800.56;;;28.12;42.46
41260;BME280;26993;48.958;9.330;2022-07-05T12:29:16;98789.94;;;27.86;41.76
41260;BME280;26993;48.958;9.330;2022-07-05T12:32:05;98797.41;;;27.67;42.17
41260;BME280;26993;48.958;9.330;2022-07-05T12:34:55;98800.81;;;27.82;42.57
41260;BME280;26993;48.958;9.330;2022-07-05T12:37:43;98790.25;;;27.95;39.59
41260;BME280;26993;48.958;9.330;2022-07-05T12:40:31;98793.78;;;28.08;41.46
41260;BME280;26993;48.958;9.330;2022-07-05T12:43:18;98793.22;;;28.03;42.61
41260;BME280;26993;48.958;9.330;2022-07-05T12:46:06;98786.47;;;28.12;41.52
41260;BME280;26993;48.958;9.330;2022-07-05T12:48:53;98792.03;;;27.94;40.83
41260;BME280;26993;48.958;9.330;2022-07-05T12:51:43;98797.44;;;27.80;41.25
41260;BME280;26993;48.958;9.330;2022-07-05T12:54:30;98786.97;;;27.91;40.39
41260;BME280;26993;48.958;9.330;2022-07-05T12:57:35;98791.84;;;27.97;40.98
41260;BME280;26993;48.958;9.330;2022-07-05T13:00:39;98788.13;;;27.87;41.25
41260;BME280;26993;48.958;9.330;2022-07-05T13:03:25;98791.09;;;27.95;40.57
41260;BME280;26993;48.958;9.330;2022-07-05T13:06:12;98790.22;;;27.69;43.19
41260;BME280;26993;48.958;9.330;2022-07-05T13:09:00;98787.16;;;27.88;41.32
41260;BME280;26993;48.958;9.330;2022-07-05T13:11:47;98788.78;;;28.03;40.63
41260;BME280;26993;48.958;9.330;2022-07-05T13:14:34;98784.72;;;27.98;41.19
41260;BME280;26993;48.958;9.330;2022-07-05T13:17:22;98792.59;;;27.99;41.42
41260;BME280;26993;48.958;9.330;2022-07-05T13:20:12;98786.53;;;27.84;41.94
41260;BME280;26993;48.958;9.330;2022-07-05T13:22:59;98796.81;;;27.89;40.78
41260;BME280;26993;48.958;9.330;2022-07-05T13:25:47;98787.81;;;27.92;39.35
41260;BME280;26993;48.958;9.330;2022-07-05T13:28:34;98784.44;;;28.02;40.41
41260;BME280;26993;48.958;9.330;2022-07-05T13:31:21;98787.06;;;28.02;40.64
41260;BME280;26993;48.958;9.330;2022-07-05T13:34:08;98782.41;;;27.80;41.07
41260;BME280;26993;48.958;9.330;2022-07-05T13:36:56;98787.91;;;27.22;42.09
41260;BME280;26993;48.958;9.330;2022-07-05T13:39:44;98787.78;;;27.11;41.08
41260;BME280;26993;48.958;9.330;2022-07-05T13:42:32;98786.47;;;27.46;41.24
41260;BME280;26993;48.958;9.330;2022-07-05T13:45:19;98781.03;;;28.00;42.22
41260;BME280;26993;48.958;9.330;2022-07-05T13:48:06;98777.31;;;27.77;42.55
41260;BME280;26993;48.958;9.330;2022-07-05T13:50:54;98773.66;;;27.52;41.13
41260;BME280;26993;48.958;9.330;2022-07-05T13:53:41;98774.44;;;27.67;41.99
41260;BME280;26993;48.958;9.330;2022-07-05T13:56:27;98780.38;;;27.71;41.64
41260;BME280;26993;48.958;9.330;2022-07-05T13:59:16;98776.22;;;27.54;40.85
41260;BME280;26993;48.958;9.330;2022-07-05T14:02:03;98777.84;;;27.69;41.57
41260;BME280;26993;48.958;9.330;2022-07-05T14:04:50;98783.25;;;27.81;40.35
41260;BME280;26993;48.958;9.330;2022-07-05T14:07:38;98777.22;;;27.92;42.77
41260;BME280;26993;48.958;9.330;2022-07-05T14:10:25;98776.38;;;28.04;42.18
41260;BME280;26993;48.958;9.330;2022-07-05T14:13:13;98786.13;;;28.03;40.59
41260;BME280;26993;48.958;9.330;2022-07-05T14:16:02;98782.19;;;27.83;40.81
41260;BME280;26993;48.958;9.330;2022-07-05T14:18:49;98780.19;;;27.87;41.13
41260;BME280;26993;48.958;9.330;2022-07-05T14:21:36;98776.47;;;28.02;40.07
41260;BME280;26993;48.958;9.330;2022-07-05T14:24:27;98781.38;;;28.09;39.81
41260;BME280;26993;48.958;9.330;2022-07-05T14:27:15;98775.97;;;27.97;40.48
41260;BME280;26993;48.958;9.330;2022-07-05T14:30:04;98779.25;;;28.01;39.18
41260;BME280;26993;48.958;9.330;2022-07-05T14:32:55;98769.59;;;27.87;38.94
41260;BME280;26993;48.958;9.330;2022-07-05T14:35:42;98761.97;;;27.69;39.71
41260;BME280;26993;48.958;9.330;2022-07-05T14:38:30;98766.75;;;27.90;40.53
41260;BME280;26993;48.958;9.330;2022-07-05T14:41:19;98763.47;;;27.99;38.78
41260;BME280;26993;48.958;9.330;2022-07-05T14:44:06;98758.47;;;27.95;40.73
41260;BME280;26993;48.958;9.330;2022-07-05T14:46:56;98753.00;;;28.11;41.50
41260;BME280;26993;48.958;9.330;2022-07-05T14:49:47;98754.69;;;28.25;40.56
41260;BME280;26993;48.958;9.330;2022-07-05T14:52:34;98753.28;;;27.93;38.95
41260;BME280;26993;48.958;9.330;2022-07-05T14:55:25;98741.81;;;27.67;39.34